Time;durP1;ratioP1;P1;durP2;ratioP2;P2;SDS_P1;SDS_P2;PMS_P1;PMS_P2;Temp;Humidity;BMP_temperature;BMP_pressure;BME280_temperature;BME280_humidity;BME280_pressure;Samples;Min_cycle;Max_cycle;Signal;HPM_P1;HPM_P2
2021/06/23 00:00:21;;;;;;;5.20;2.38;;;;;;;21.62;48.34;101929.81;5073382;28;20016;-60
2021/06/23 00:02:47;;;;;;;4.95;2.60;;;;;;;21.60;48.53;101929.06;5072710;28;20131;-60
2021/06/23 00:05:13;;;;;;;3.78;2.13;;;;;;;21.60;48.40;101934.38;5073074;28;20115;-60
2021/06/23 00:07:38;;;;;;;4.07;2.53;;;;;;;21.60;48.56;101939.66;5073298;28;20444;-60
2021/06/23 00:10:04;;;;;;;5.35;2.60;;;;;;;21.59;48.60;101939.78;5072289;28;20106;-59
2021/06/23 00:12:30;;;;;;;5.20;2.45;;;;;;;21.58;48.45;101944.25;5073721;28;20032;-60
2021/06/23 00:14:56;;;;;;;5.55;2.45;;;;;;;21.59;48.31;101939.78;5073426;28;20029;-60
2021/06/23 00:17:21;;;;;;;5.47;2.30;;;;;;;21.58;48.38;101943.44;5072259;28;20025;-60
2021/06/23 00:19:46;;;;;;;5.70;2.63;;;;;;;21.55;48.38;101940.06;5073352;28;20035;-60
2021/06/23 00:22:12;;;;;;;6.10;2.47;;;;;;;21.57;48.38;101934.63;5073033;28;20020;-60
2021/06/23 00:24:37;;;;;;;4.82;2.47;;;;;;;21.54;48.12;101921.63;5071969;28;20079;-60
2021/06/23 00:27:03;;;;;;;6.23;2.30;;;;;;;21.55;48.26;101921.50;5072904;28;20469;-61
2021/06/23 00:29:28;;;;;;;6.30;2.45;;;;;;;21.54;48.04;101918.97;5073298;28;20376;-60
2021/06/23 00:31:54;;;;;;;4.50;2.30;;;;;;;21.51;48.01;101922.69;5072214;28;20054;-60
2021/06/23 00:34:22;;;;;;;5.05;2.13;;;;;;;21.53;48.15;101914.63;5072466;28;20352;-60
2021/06/23 00:36:47;;;;;;;6.35;2.60;;;;;;;21.52;48.23;101921.75;5073314;28;20039;-60
2021/06/23 00:39:13;;;;;;;5.28;2.30;;;;;;;21.51;48.29;101922.69;5071645;28;20031;-61
2021/06/23 00:41:38;;;;;;;4.90;2.13;;;;;;;21.51;48.11;101920.03;5072816;28;20501;-61
2021/06/23 00:44:04;;;;;;;5.47;2.22;;;;;;;21.52;48.20;101934.13;5072448;28;20070;-59
2021/06/23 00:46:30;;;;;;;4.95;2.50;;;;;;;21.51;48.03;101924.50;5072046;28;20024;-59
2021/06/23 00:48:57;;;;;;;4.70;2.55;;;;;;;21.50;48.06;101931.59;5072659;28;20487;-60
2021/06/23 00:51:23;;;;;;;5.28;2.83;;;;;;;21.50;47.92;101933.41;5072245;28;20456;-61
2021/06/23 00:53:48;;;;;;;6.60;2.47;;;;;;;21.48;48.05;101930.03;5071588;28;20058;-61
2021/06/23 00:56:15;;;;;;;5.05;2.38;;;;;;;21.49;47.71;101935.22;5072263;28;20028;-61
2021/06/23 00:58:47;;;;;;;4.80;2.40;;;;;;;21.47;48.00;101931.81;5072272;28;20432;-61
2021/06/23 01:01:12;;;;;;;4.25;2.30;;;;;;;21.48;47.91;101933.53;5071980;28;20544;-61
2021/06/23 01:03:41;;;;;;;4.88;2.65;;;;;;;21.47;47.99;101930.97;5072385;28;20120;-61
2021/06/23 01:06:07;;;;;;;4.75;2.40;;;;;;;21.47;47.98;101933.63;5070309;28;20493;-61
2021/06/23 01:08:32;;;;;;;4.95;2.38;;;;;;;21.46;47.84;101932.78;5072259;28;20038;-60
2021/06/23 01:10:58;;;;;;;6.13;2.60;;;;;;;21.45;47.95;101928.44;5072228;28;20021;-61
2021/06/23 01:13:47;;;;;;;5.70;2.60;;;;;;;21.44;47.89;101925.91;5069720;28;20040;-61
2021/06/23 01:16:13;;;;;;;4.25;2.40;;;;;;;21.46;47.84;101931.94;5071992;28;20016;-60
2021/06/23 01:18:39;;;;;;;4.18;2.33;;;;;;;21.45;47.92;101932.91;5072052;28;20107;-60
2021/06/23 01:21:06;;;;;;;5.30;2.20;;;;;;;21.43;47.73;101932.16;5071322;28;20116;-60
2021/06/23 01:23:35;;;;;;;4.50;2.30;;;;;;;21.42;47.96;101930.50;5071891;28;20589;-60
2021/06/23 01:26:04;;;;;;;4.93;2.60;;;;;;;21.42;47.69;101930.50;5051701;28;20052;-59
2021/06/23 01:28:30;;;;;;;5.50;2.45;;;;;;;21.43;47.80;101932.16;5051357;28;20029;-60
2021/06/23 01:30:59;;;;;;;5.35;2.60;;;;;;;21.41;47.76;101937.59;5051802;28;20400;-60
2021/06/23 01:33:26;;;;;;;5.88;2.55;;;;;;;21.41;47.62;101940.25;5051557;28;20028;-60
2021/06/23 01:35:55;;;;;;;4.53;2.40;;;;;;;21.40;47.65;101946.53;5051393;28;20086;-59
2021/06/23 01:38:20;;;;;;;5.13;2.67;;;;;;;21.40;47.54;101948.34;5051663;28;20032;-60
2021/06/23 01:40:46;;;;;;;6.15;2.78;;;;;;;21.39;47.53;101950.13;5051987;28;20025;-60
2021/06/23 01:43:12;;;;;;;6.45;3.22;;;;;;;21.39;47.68;101934.22;5050805;28;20435;-60
2021/06/23 01:45:38;;;;;;;5.72;3.00;;;;;;;21.38;47.78;101951.13;5051609;28;20070;-60
2021/06/23 01:48:04;;;;;;;5.18;2.88;;;;;;;21.37;47.86;101958.19;5050955;28;20036;-60
2021/06/23 01:50:29;;;;;;;6.47;2.97;;;;;;;21.38;47.60;101956.41;5051557;28;20478;-59
2021/06/23 01:52:54;;;;;;;5.03;2.40;;;;;;;21.37;47.54;101962.66;5051799;28;20045;-60
2021/06/23 01:55:29;;;;;;;7.85;3.15;;;;;;;21.37;47.47;101970.63;5050915;28;20515;-59
2021/06/23 01:58:07;;;;;;;4.95;2.72;;;;;;;21.37;47.19;101973.28;5051657;28;20024;-60
2021/06/23 02:00:52;;;;;;;4.15;2.60;;;;;;;21.36;47.46;101974.22;5051697;28;20025;-60
2021/06/23 02:06:49;;;;;;;4.75;2.85;;;;;;;21.35;47.43;101973.41;5051048;28;20039;-61
2021/06/23 02:09:33;;;;;;;5.72;3.08;;;;;;;21.34;47.51;101974.34;5050758;28;20066;-61
2021/06/23 02:12:38;;;;;;;4.97;2.83;;;;;;;21.33;47.54;101980.63;5051694;28;20051;-60
2021/06/23 02:15:06;;;;;;;4.78;2.92;;;;;;;21.32;47.27;101983.41;5051272;28;20113;-61
2021/06/23 02:17:31;;;;;;;6.50;2.90;;;;;;;21.29;47.46;101973.88;5052482;28;20061;-60
2021/06/23 02:19:59;;;;;;;5.45;2.83;;;;;;;21.31;47.41;101987.84;5055548;28;20067;-60
2021/06/23 02:22:27;;;;;;;5.28;2.85;;;;;;;21.30;47.44;101983.53;5055023;28;20112;-61
2021/06/23 02:25:03;;;;;;;5.18;2.38;;;;;;;21.31;47.46;101987.84;5054717;28;20098;-60
2021/06/23 02:27:29;;;;;;;5.80;2.80;;;;;;;21.29;47.51;101989.78;5054017;28;20055;-60
2021/06/23 02:29:57;;;;;;;5.13;2.88;;;;;;;21.29;47.65;101989.78;5055341;28;20060;-60
2021/06/23 02:32:26;;;;;;;4.50;2.80;;;;;;;21.29;47.20;101992.44;5054139;28;20535;-61
2021/06/23 02:34:53;;;;;;;6.05;3.08;;;;;;;21.29;47.36;101989.78;5055102;28;20457;-61
2021/06/23 02:37:19;;;;;;;5.03;2.83;;;;;;;21.29;47.12;101987.13;5054011;28;20100;-60
2021/06/23 02:39:44;;;;;;;4.47;2.70;;;;;;;21.28;47.39;101992.53;5055197;28;20120;-60
2021/06/23 02:42:10;;;;;;;6.03;2.78;;;;;;;21.27;47.29;101990.84;5054738;28;20419;-60
2021/06/23 02:44:36;;;;;;;4.88;2.70;;;;;;;21.26;47.12;101992.66;5054311;28;20033;-60
2021/06/23 02:47:02;;;;;;;5.07;2.85;;;;;;;21.27;47.25;101993.50;5055038;28;20389;-60
2021/06/23 02:49:29;;;;;;;5.15;3.20;;;;;;;21.24;47.46;101984.00;5054876;28;20089;-60
2021/06/23 02:51:56;;;;;;;5.63;2.80;;;;;;;21.27;47.31;101989.06;5054142;28;20036;-60
2021/06/23 02:54:25;;;;;;;5.60;2.58;;;;;;;21.25;47.24;101988.31;5054427;28;20033;-61
2021/06/23 02:56:51;;;;;;;4.75;2.47;;;;;;;21.25;47.34;101993.59;5054583;28;20028;-60
2021/06/23 02:59:18;;;;;;;4.43;2.70;;;;;;;21.25;47.42;101990.13;5053789;28;20104;-60
2021/06/23 03:01:44;;;;;;;4.88;2.75;;;;;;;21.26;47.29;101991.81;5054733;28;20075;-60
2021/06/23 03:04:09;;;;;;;4.53;2.60;;;;;;;21.24;47.38;101991.94;5054046;28;20021;-60
2021/06/23 03:06:35;;;;;;;5.85;2.45;;;;;;;21.24;47.19;101988.44;5053724;28;20276;-60
2021/06/23 03:09:00;;;;;;;5.22;2.70;;;;;;;21.23;47.19;101990.25;5054320;28;20028;-60
2021/06/23 03:11:32;;;;;;;5.47;2.88;;;;;;;21.22;47.32;101985.91;5054341;28;20047;-60
2021/06/23 03:13:57;;;;;;;5.22;2.58;;;;;;;21.23;47.19;101995.53;5053889;28;20025;-60
2021/06/23 03:16:25;;;;;;;4.57;2.55;;;;;;;21.24;47.25;102001.69;5054128;28;20461;-61
2021/06/23 03:18:50;;;;;;;5.50;2.67;;;;;;;21.23;47.47;102000.00;5054265;28;20025;-61
2021/06/23 03:21:18;;;;;;;4.97;2.80;;;;;;;21.22;47.35;101995.66;5053145;28;20051;-60
2021/06/23 03:23:47;;;;;;;6.07;2.85;;;;;;;21.20;47.41;101998.44;5053772;28;20510;-60
2021/06/23 03:26:13;;;;;;;6.15;2.90;;;;;;;21.20;47.35;101994.00;5054117;28;20033;-60
2021/06/23 03:28:38;;;;;;;5.25;2.75;;;;;;;21.21;47.37;101992.19;5052742;28;20027;-61
2021/06/23 03:31:03;;;;;;;6.18;2.90;;;;;;;21.20;47.22;101998.44;5053818;28;20432;-61
2021/06/23 03:33:29;;;;;;;5.25;2.60;;;;;;;21.20;47.17;101998.44;5053306;28;20085;-61
2021/06/23 03:35:54;;;;;;;4.87;2.23;;;;;;;21.19;47.27;101999.41;5053895;28;20040;-60
2021/06/23 03:38:20;;;;;;;3.75;2.38;;;;;;;21.18;47.32;102000.34;5053432;28;20607;-60
2021/06/23 03:40:45;;;;;;;6.22;2.60;;;;;;;21.19;47.14;102013.50;5053292;28;20044;-60
2021/06/23 03:43:10;;;;;;;4.80;2.70;;;;;;;21.18;47.25;102008.31;5053766;28;20029;-61
2021/06/23 03:45:36;;;;;;;5.28;2.78;;;;;;;21.18;47.23;102010.97;5053656;28;20449;-60
2021/06/23 03:48:01;;;;;;;5.93;2.50;;;;;;;21.17;47.17;101998.66;5052899;28;20057;-60
2021/06/23 03:50:31;;;;;;;5.03;2.65;;;;;;;21.16;47.09;101995.19;5053657;28;20377;-60
2021/06/23 03:52:57;;;;;;;5.57;2.58;;;;;;;21.16;47.24;102000.47;5053566;28;20052;-60
2021/06/23 03:55:26;;;;;;;5.43;2.60;;;;;;;21.15;47.27;101997.94;5052740;28;20083;-61
2021/06/23 03:57:52;;;;;;;4.90;2.35;;;;;;;21.17;47.16;102003.97;5053490;28;20020;-61
2021/06/23 04:00:19;;;;;;;5.35;2.58;;;;;;;21.15;47.40;102008.53;5053332;28;20087;-61
2021/06/23 04:02:44;;;;;;;5.55;2.67;;;;;;;21.14;47.17;102004.19;5052601;28;20029;-61
2021/06/23 04:05:11;;;;;;;5.78;2.83;;;;;;;21.16;47.33;102007.59;5052806;28;20465;-61
2021/06/23 04:07:37;;;;;;;5.72;2.72;;;;;;;21.16;47.32;102008.44;5053082;28;20033;-60
2021/06/23 04:10:04;;;;;;;4.78;2.35;;;;;;;21.14;47.25;102010.38;5052327;28;20086;-60
2021/06/23 04:12:29;;;;;;;4.25;2.30;;;;;;;21.14;47.32;102013.00;5053193;28;20025;-60
2021/06/23 04:14:54;;;;;;;4.82;2.45;;;;;;;21.10;47.10;101995.63;5053128;28;20464;-60
2021/06/23 04:17:20;;;;;;;5.45;2.42;;;;;;;21.14;47.19;102005.06;5051865;28;20120;-60
2021/06/23 04:19:45;;;;;;;5.38;2.60;;;;;;;21.14;47.21;102004.19;5052826;28;20082;-61
2021/06/23 04:22:10;;;;;;;4.85;2.35;;;;;;;21.14;47.24;102004.19;5052608;28;20033;-61
2021/06/23 04:24:35;;;;;;;5.82;2.42;;;;;;;21.12;47.31;101999.00;5059541;28;20495;-61
2021/06/23 04:27:01;;;;;;;5.70;2.60;;;;;;;21.11;47.26;102000.00;5052690;28;20529;-60
2021/06/23 04:29:26;;;;;;;4.60;2.50;;;;;;;21.13;47.20;102002.53;5052957;28;20388;-59
2021/06/23 04:31:51;;;;;;;4.82;2.33;;;;;;;21.12;47.25;102009.59;5052305;28;20094;-61
2021/06/23 04:34:17;;;;;;;6.30;2.60;;;;;;;21.13;47.30;102007.81;5052357;28;20399;-60
2021/06/23 04:36:42;;;;;;;5.05;2.33;;;;;;;21.13;47.44;102010.47;5052572;28;20444;-60
2021/06/23 04:39:08;;;;;;;4.65;2.40;;;;;;;21.10;47.26;102000.94;5051796;28;20032;-60
2021/06/23 04:41:33;;;;;;;4.53;2.30;;;;;;;21.12;47.24;101998.19;5051627;28;20025;-60
2021/06/23 04:44:01;;;;;;;5.82;2.28;;;;;;;21.10;47.14;102003.59;5051920;28;20460;-61
2021/06/23 04:46:28;;;;;;;7.03;2.50;;;;;;;21.11;47.19;102009.72;5052421;28;20032;-61
2021/06/23 04:48:53;;;;;;;4.28;2.33;;;;;;;21.11;47.23;102007.06;5052484;28;20067;-60
2021/06/23 04:51:18;;;;;;;5.50;2.15;;;;;;;21.10;47.32;102006.25;5051339;28;20056;-61
2021/06/23 04:53:44;;;;;;;4.70;2.43;;;;;;;21.10;47.09;102008.88;5052608;28;20051;-60
2021/06/23 04:56:09;;;;;;;4.80;2.53;;;;;;;21.09;47.17;102001.88;5052131;28;20796;-60
2021/06/23 04:58:35;;;;;;;5.00;2.80;;;;;;;21.09;47.21;102004.53;5051590;28;20032;-61
2021/06/23 05:01:00;;;;;;;4.67;2.13;;;;;;;21.10;47.30;102006.25;5052373;28;20464;-60
2021/06/23 05:03:25;;;;;;;6.53;2.30;;;;;;;21.09;47.46;102006.34;5051927;28;20274;-61
2021/06/23 05:05:50;;;;;;;4.40;2.38;;;;;;;21.08;47.21;102002.88;5051315;28;20286;-61
2021/06/23 05:08:16;;;;;;;5.63;2.30;;;;;;;21.08;47.24;102013.47;5051817;28;20444;-61
2021/06/23 05:10:41;;;;;;;4.25;2.20;;;;;;;21.08;47.34;102012.59;5052058;28;20296;-60
2021/06/23 05:13:07;;;;;;;5.40;2.22;;;;;;;21.08;47.08;102015.25;5051243;28;20024;-60
2021/06/23 05:15:32;;;;;;;5.57;2.55;;;;;;;21.08;47.31;102013.47;5052063;28;20154;-60
2021/06/23 05:17:58;;;;;;;5.53;2.20;;;;;;;21.05;46.97;102003.09;5052007;28;20032;-59
2021/06/23 05:20:24;;;;;;;3.90;1.95;;;;;;;21.06;46.88;102014.53;5051174;28;20029;-61
2021/06/23 05:22:50;;;;;;;7.70;2.45;;;;;;;21.06;47.00;102015.41;5052311;28;20028;-61
2021/06/23 05:25:17;;;;;;;4.57;2.30;;;;;;;21.06;47.17;102011.88;5051566;28;20053;-61
2021/06/23 05:27:43;;;;;;;6.70;2.45;;;;;;;21.06;47.36;102015.41;5051308;28;20025;-61
2021/06/23 05:30:08;;;;;;;5.72;2.70;;;;;;;21.06;47.29;102018.06;5051589;28;20086;-61
2021/06/23 05:32:34;;;;;;;5.32;2.42;;;;;;;21.07;47.16;102014.41;5051933;28;20021;-60
2021/06/23 05:34:59;;;;;;;4.60;2.20;;;;;;;21.05;47.15;102011.06;5051079;28;20029;-61
2021/06/23 05:37:27;;;;;;;4.30;2.40;;;;;;;21.06;47.12;102019.84;5051681;28;20017;-61
2021/06/23 05:39:53;;;;;;;4.72;2.10;;;;;;;21.04;47.10;102008.50;5051722;28;20342;-60
2021/06/23 05:42:18;;;;;;;4.32;2.10;;;;;;;21.05;47.12;102011.06;5050731;28;20021;-60
2021/06/23 05:44:44;;;;;;;4.65;2.40;;;;;;;21.05;47.23;102019.00;5051907;28;20043;-60
2021/06/23 05:47:09;;;;;;;5.00;2.17;;;;;;;21.02;46.86;102017.41;5050527;28;20099;-61
2021/06/23 05:49:34;;;;;;;6.30;2.30;;;;;;;21.04;46.97;102012.00;5051479;28;20289;-60
2021/06/23 05:51:59;;;;;;;4.70;2.28;;;;;;;21.04;47.11;102019.94;5052423;28;20278;-61
2021/06/23 05:54:25;;;;;;;5.43;2.78;;;;;;;21.04;47.02;102021.75;5054784;28;20385;-61
2021/06/23 05:56:50;;;;;;;5.07;2.30;;;;;;;21.05;47.06;102028.78;5055908;28;20484;-59
2021/06/23 05:59:15;;;;;;;5.32;2.30;;;;;;;21.03;46.84;102023.59;5055392;28;20070;-60
2021/06/23 06:01:41;;;;;;;4.05;2.13;;;;;;;21.04;47.05;102027.06;5054784;28;20023;-61
2021/06/23 06:04:06;;;;;;;4.88;2.38;;;;;;;21.02;46.86;102030.66;5055076;28;20021;-60
2021/06/23 06:06:31;;;;;;;5.43;2.30;;;;;;;21.01;47.04;102031.66;5055612;28;20025;-59
2021/06/23 06:08:56;;;;;;;5.40;2.40;;;;;;;21.03;46.86;102034.19;5055045;28;20032;-60
2021/06/23 06:11:22;;;;;;;5.10;2.50;;;;;;;21.02;46.97;102030.66;5055413;28;20017;-60
2021/06/23 06:13:50;;;;;;;5.07;2.40;;;;;;;21.02;46.84;102035.97;5055601;28;20061;-61
2021/06/23 06:16:15;;;;;;;4.93;2.30;;;;;;;21.01;46.73;102031.66;5054516;28;20369;-62
2021/06/23 06:18:41;;;;;;;6.28;2.30;;;;;;;21.00;46.82;102034.41;5055813;28;20052;-60
2021/06/23 06:21:09;;;;;;;5.88;2.55;;;;;;;21.00;47.15;102045.84;5055386;28;20025;-60
2021/06/23 06:23:35;;;;;;;4.70;2.10;;;;;;;20.99;46.94;102045.97;5054262;28;20036;-61
2021/06/23 06:26:00;;;;;;;4.80;2.45;;;;;;;20.99;47.19;102052.09;5055266;28;20037;-60
2021/06/23 06:28:26;;;;;;;4.63;2.20;;;;;;;20.99;47.25;102048.63;5055112;28;20040;-60
2021/06/23 06:30:51;;;;;;;5.05;2.10;;;;;;;20.99;47.40;102056.56;5054522;28;20025;-59
2021/06/23 06:33:17;;;;;;;4.33;2.07;;;;;;;20.97;47.14;102051.38;5054969;28;20071;-60
2021/06/23 06:35:42;;;;;;;4.70;2.08;;;;;;;20.97;47.31;102055.84;5055512;28;20278;-60
2021/06/23 06:38:08;;;;;;;4.88;2.15;;;;;;;20.95;47.26;102053.31;5054082;28;20017;-59
2021/06/23 06:40:33;;;;;;;5.10;2.20;;;;;;;20.96;47.31;102056.78;5055083;28;20036;-61
2021/06/23 06:42:58;;;;;;;5.00;2.15;;;;;;;20.90;47.53;102047.47;5055065;28;20461;-59
2021/06/23 06:45:27;;;;;;;7.33;2.40;;;;;;;20.95;47.25;102060.38;5054034;28;20045;-59
2021/06/23 06:47:52;;;;;;;3.92;1.98;;;;;;;20.95;47.38;102061.25;5054981;28;20262;-60
2021/06/23 06:50:20;;;;;;;5.97;2.40;;;;;;;20.96;47.38;102067.38;5054664;28;20024;-60
2021/06/23 06:52:49;;;;;;;5.95;2.40;;;;;;;20.95;47.25;102069.19;5054094;28;20154;-59
2021/06/23 06:55:20;;;;;;;6.40;2.38;;;;;;;20.95;47.50;102063.91;5054664;28;20056;-60
2021/06/23 06:57:48;;;;;;;5.18;2.42;;;;;;;20.94;47.41;102067.50;5053856;28;20411;-58
2021/06/23 07:00:14;;;;;;;4.75;2.25;;;;;;;20.93;47.42;102065.78;5054300;28;20049;-59
2021/06/23 07:02:39;;;;;;;5.50;2.15;;;;;;;20.96;47.23;102073.53;5054725;28;20436;-58
2021/06/23 07:05:08;;;;;;;5.77;1.90;;;;;;;20.99;47.46;102073.28;5052376;28;20113;-59
2021/06/23 07:07:33;;;;;;;4.18;1.85;;;;;;;21.01;47.46;102074.06;5054728;28;20308;-58
2021/06/23 07:10:03;;;;;;;5.15;2.28;;;;;;;21.05;47.49;102081.78;5054691;28;20020;-58
2021/06/23 07:12:29;;;;;;;4.85;2.22;;;;;;;21.07;47.77;102079.84;5056623;28;20104;-59
2021/06/23 07:14:54;;;;;;;4.32;1.83;;;;;;;21.08;47.78;102074.44;5054723;28;20067;-60
2021/06/23 07:17:19;;;;;;;5.03;2.10;;;;;;;21.11;47.66;102076.84;5055275;28;20100;-61
2021/06/23 07:19:44;;;;;;;6.18;2.10;;;;;;;21.12;47.69;102070.56;5054469;28;20388;-60
2021/06/23 07:22:10;;;;;;;3.85;1.80;;;;;;;21.16;47.84;102079.16;5054204;28;20029;-61
2021/06/23 07:24:35;;;;;;;5.27;2.00;;;;;;;21.17;47.86;102072.88;5055037;28;20052;-61
2021/06/23 07:27:03;;;;;;;4.88;2.03;;;;;;;21.17;47.86;102068.44;5056475;28;20289;-61
2021/06/23 07:29:29;;;;;;;6.03;2.10;;;;;;;21.20;47.67;102067.34;5054617;28;20033;-59
2021/06/23 07:31:59;;;;;;;3.92;1.90;;;;;;;21.21;47.75;102074.34;5054699;28;20029;-59
2021/06/23 07:37:03;;;;;;;4.68;2.28;;;;;;;21.22;47.86;102070.75;5054612;28;20029;-59
2021/06/23 07:39:28;;;;;;;6.53;1.70;;;;;;;21.22;47.61;102078.72;5054589;28;20036;-59
2021/06/23 07:41:54;;;;;;;6.38;2.00;;;;;;;21.18;47.45;102075.41;5054042;28;20053;-59
2021/06/23 07:44:34;;;;;;;4.50;1.85;;;;;;;21.22;47.71;102078.72;5054290;28;20031;-59
2021/06/23 07:47:04;;;;;;;5.07;1.95;;;;;;;21.20;47.77;102068.22;5053776;28;20033;-59
2021/06/23 07:49:31;;;;;;;3.38;1.45;;;;;;;21.20;47.49;102070.00;5054132;28;20132;-59
2021/06/23 07:52:07;;;;;;;4.43;1.83;;;;;;;21.19;47.55;102066.53;5053704;28;20036;-59
2021/06/23 07:54:48;;;;;;;5.32;1.70;;;;;;;21.20;47.55;102075.31;5053257;28;20100;-59
2021/06/23 08:11:15;;;;;;;4.28;1.80;;;;;;;21.27;47.55;102079.19;5053625;28;20439;-60
2021/06/23 08:13:43;;;;;;;4.68;1.88;;;;;;;21.29;47.70;102076.44;5053884;28;20354;-60
2021/06/23 08:16:09;;;;;;;6.18;1.80;;;;;;;21.32;47.63;102073.56;5052059;28;20017;-59
2021/06/23 08:18:34;;;;;;;5.32;1.80;;;;;;;21.29;47.59;102074.63;5053599;28;20036;-59
2021/06/23 08:21:00;;;;;;;3.47;1.55;;;;;;;21.33;47.75;102078.75;5053488;28;20025;-58
2021/06/23 08:23:25;;;;;;;6.22;1.90;;;;;;;21.33;47.58;102073.44;5052261;28;20025;-59
2021/06/23 08:25:50;;;;;;;5.38;1.80;;;;;;;21.35;47.59;102074.16;5052771;28;20503;-59
2021/06/23 08:28:15;;;;;;;4.38;1.70;;;;;;;21.31;47.97;102070.03;5053529;28;20384;-60
2021/06/23 08:30:41;;;;;;;4.88;1.52;;;;;;;21.35;47.78;102071.50;5053453;28;20025;-60
2021/06/23 08:33:07;;;;;;;4.55;1.58;;;;;;;21.36;47.72;102070.56;5053602;28;20146;-60
2021/06/23 08:35:35;;;;;;;4.93;1.70;;;;;;;21.37;47.86;102079.34;5052931;28;20070;-59
2021/06/23 08:38:01;;;;;;;6.38;1.60;;;;;;;21.34;47.85;102075.09;5052286;28;20021;-58
2021/06/23 08:40:27;;;;;;;5.57;1.90;;;;;;;21.36;47.78;102086.47;5052478;28;20415;-60
2021/06/23 08:42:52;;;;;;;3.10;1.58;;;;;;;21.35;47.63;102075.97;5052874;28;20027;-60
2021/06/23 08:45:18;;;;;;;3.63;1.60;;;;;;;21.33;47.66;102086.69;5052147;28;20028;-60
2021/06/23 08:47:46;;;;;;;5.53;2.20;;;;;;;21.30;47.18;102078.09;5052755;28;20029;-60
2021/06/23 08:50:17;;;;;;;3.92;1.70;;;;;;;21.27;47.29;102084.50;5051483;28;20025;-59
2021/06/23 08:52:43;;;;;;;6.72;1.83;;;;;;;21.24;47.39;102090.03;5052844;28;20029;-59
2021/06/23 08:55:09;;;;;;;4.53;1.50;;;;;;;21.20;47.17;102091.22;5052408;28;20024;-59
2021/06/23 08:57:34;;;;;;;4.20;1.65;;;;;;;21.19;47.19;102087.72;5050458;28;20021;-59
2021/06/23 09:00:01;;;;;;;7.72;1.98;;;;;;;21.19;47.03;102086.88;5052374;28;20032;-60
2021/06/23 09:02:28;;;;;;;3.90;1.67;;;;;;;21.20;47.04;102094.72;5052811;28;20036;-59
2021/06/23 09:04:54;;;;;;;4.97;1.70;;;;;;;21.19;47.14;102084.25;5051887;28;20033;-60
2021/06/23 09:07:45;;;;;;;6.35;2.20;;;;;;;21.19;46.71;102089.53;5051910;28;20373;-59
2021/06/23 09:10:28;;;;;;;5.32;1.55;;;;;;;21.18;46.98;102086.03;5052940;28;20183;-60
2021/06/23 09:13:14;;;;;;;4.18;1.63;;;;;;;21.19;46.96;102081.59;5051643;28;20032;-59
2021/06/23 09:15:50;;;;;;;4.35;1.50;;;;;;;21.19;46.86;102086.88;5052250;28;20076;-59
2021/06/23 09:18:40;;;;;;;6.43;1.52;;;;;;;21.17;46.68;102081.69;5051221;28;20040;-59
2021/06/23 09:21:11;;;;;;;5.63;1.70;;;;;;;21.17;46.61;102088.78;5051908;28;20134;-60
2021/06/23 09:23:39;;;;;;;4.88;1.48;;;;;;;21.18;46.53;102086.03;5052128;28;20456;-59
2021/06/23 09:26:18;;;;;;;4.70;1.70;;;;;;;21.20;46.69;102091.22;5050366;28;20056;-59
2021/06/23 09:28:45;;;;;;;4.72;1.40;;;;;;;21.22;46.83;102091.09;5051929;28;20081;-60
2021/06/23 09:31:12;;;;;;;4.45;1.65;;;;;;;21.25;46.74;102091.72;5051557;28;20369;-68
2021/06/23 09:33:38;;;;;;;4.75;1.60;;;;;;;21.26;46.50;102087.28;5051210;28;20052;-60
2021/06/23 09:36:07;;;;;;;3.90;1.73;;;;;;;21.23;45.51;102087.50;5051633;28;20032;-60
2021/06/23 09:38:41;;;;;;;5.32;1.98;;;;;;;21.19;45.88;102100.97;5051902;28;20032;-60
2021/06/23 09:41:20;;;;;;;5.70;2.00;;;;;;;21.17;46.28;102088.78;5051051;28;20078;-62
2021/06/23 09:44:08;;;;;;;5.65;1.70;;;;;;;21.20;46.33;102091.22;5051842;28;20083;-60
2021/06/23 09:46:39;;;;;;;4.32;1.80;;;;;;;21.22;46.51;102085.78;5051013;28;20028;-60
2021/06/23 09:49:08;;;;;;;4.82;1.67;;;;;;;21.22;46.76;102086.66;5051560;28;20025;-60
2021/06/23 09:51:42;;;;;;;3.95;1.40;;;;;;;21.26;46.85;102088.09;5051892;28;20024;-60
2021/06/23 09:54:08;;;;;;;3.45;1.45;;;;;;;21.27;46.51;102086.28;5050746;28;20025;-60
2021/06/23 09:56:41;;;;;;;4.65;1.77;;;;;;;21.28;46.63;102090.63;5051808;28;20099;-60
2021/06/23 09:59:07;;;;;;;5.95;1.65;;;;;;;21.27;46.60;102094.25;5051347;28;20032;-61
2021/06/23 10:01:41;;;;;;;5.53;2.00;;;;;;;21.26;46.46;102092.56;5050816;28;20025;-60
2021/06/23 10:04:08;;;;;;;;;;;;;;;21.26;46.29;102089.91;5051873;28;20036;-60
2021/06/23 10:06:46;;;;;;;5.72;1.90;;;;;;;21.28;46.10;102090.63;5051916;28;20384;-60
2021/06/23 10:09:20;;;;;;;4.25;2.00;;;;;;;21.29;46.35;102087.88;5050859;28;20078;-60
2021/06/23 10:11:47;;;;;;;9.43;1.98;;;;;;;21.33;46.27;102099.94;5051650;28;20029;-61
2021/06/23 10:14:13;;;;;;;3.72;1.60;;;;;;;21.35;46.34;102097.19;5051334;28;20036;-59
2021/06/23 10:16:39;;;;;;;4.75;1.83;;;;;;;21.37;46.21;102096.09;5051173;28;20029;-59
2021/06/23 10:19:06;;;;;;;4.30;1.60;;;;;;;21.39;46.51;102088.03;5051465;28;20025;-59
2021/06/23 10:21:33;;;;;;;4.82;1.60;;;;;;;21.41;46.43;102088.75;5050930;28;20107;-60
2021/06/23 10:23:59;;;;;;;5.60;2.05;;;;;;;21.43;46.40;102091.28;5051192;28;20445;-60
2021/06/23 10:26:26;;;;;;;4.45;1.60;;;;;;;21.43;46.30;102085.97;5051012;28;20554;-59
2021/06/23 10:28:53;;;;;;;4.38;1.70;;;;;;;21.45;46.61;102092.88;5050874;28;20055;-59
2021/06/23 10:31:21;;;;;;;4.97;1.90;;;;;;;21.46;46.65;102091.91;5051313;28;20423;-59
2021/06/23 10:33:47;;;;;;;4.68;1.73;;;;;;;21.48;46.39;102091.78;5052169;28;20448;-58
2021/06/23 10:36:13;;;;;;;3.33;1.42;;;;;;;21.49;46.71;102090.84;5050571;28;20053;-59
2021/06/23 10:38:42;;;;;;;4.47;1.65;;;;;;;21.47;46.54;102082.97;5053036;28;20029;-60
2021/06/23 10:41:11;;;;;;;5.10;1.70;;;;;;;21.46;46.66;102089.25;5054772;28;20040;-59
2021/06/23 10:43:37;;;;;;;4.43;1.77;;;;;;;21.48;46.54;102099.75;5054541;28;20029;-60
2021/06/23 10:46:02;;;;;;;4.45;1.52;;;;;;;21.46;46.71;102099.88;5054788;28;20453;-59
2021/06/23 10:48:28;;;;;;;3.70;1.50;;;;;;;21.46;46.60;102105.19;5055121;28;20021;-60
2021/06/23 10:50:53;;;;;;;5.35;1.60;;;;;;;21.41;46.70;102093.22;5054211;28;20021;-59
2021/06/23 10:53:35;;;;;;;5.90;1.92;;;;;;;21.45;46.58;102110.59;5054860;28;20040;-59
2021/06/23 10:56:03;;;;;;;4.53;1.80;;;;;;;21.46;46.60;102104.31;5055279;28;20041;-59
2021/06/23 10:58:31;;;;;;;4.65;1.70;;;;;;;21.44;46.58;102103.59;5054343;28;20025;-58
2021/06/23 11:01:11;;;;;;;6.10;1.83;;;;;;;21.45;46.68;102108.78;5054675;28;20112;-59
2021/06/23 11:04:00;;;;;;;3.72;1.50;;;;;;;21.46;46.79;102112.25;5054641;28;20453;-60
2021/06/23 11:06:46;;;;;;;3.30;1.40;;;;;;;21.45;46.56;102108.78;5054717;28;20044;-60
2021/06/23 11:09:21;;;;;;;3.58;1.60;;;;;;;21.47;46.64;102113.97;5054301;28;20499;-59
2021/06/23 11:11:46;;;;;;;5.43;1.70;;;;;;;21.46;46.70;102106.97;5054030;28;20032;-59
2021/06/23 11:14:16;;;;;;;4.23;1.83;;;;;;;21.47;46.77;102113.97;5054396;28;20121;-60
2021/06/23 11:16:42;;;;;;;3.25;1.70;;;;;;;21.47;46.81;102108.66;5054520;28;20274;-61
2021/06/23 11:19:09;;;;;;;5.03;1.60;;;;;;;21.49;46.75;102104.09;5053619;28;20021;-60
2021/06/23 11:21:37;;;;;;;5.40;1.63;;;;;;;21.47;46.90;102098.06;5054549;28;20082;-60
2021/06/23 11:24:11;;;;;;;5.57;1.70;;;;;;;21.51;46.87;102107.50;5054140;28;20028;-60
2021/06/23 11:26:38;;;;;;;5.60;1.60;;;;;;;21.51;46.49;102107.50;5053985;28;20160;-60
2021/06/23 11:29:10;;;;;;;4.95;1.88;;;;;;;21.49;46.37;102107.63;5053997;28;20481;-59
2021/06/23 11:31:46;;;;;;;3.60;1.50;;;;;;;21.46;46.38;102099.00;5054261;28;20025;-61
2021/06/23 11:34:43;;;;;;;5.07;1.90;;;;;;;21.47;46.46;102096.25;5054132;28;20047;-61
2021/06/23 11:37:17;;;;;;;4.47;1.60;;;;;;;21.46;46.25;102099.00;5053883;28;20036;-60
2021/06/23 11:39:43;;;;;;;;;;;;;;;21.47;46.14;102101.53;5053971;28;20021;-61
2021/06/23 11:42:08;;;;;;;4.72;1.70;;;;;;;21.45;45.94;102103.47;5054477;28;19912;-61
2021/06/23 11:44:39;;;;;;;5.72;1.80;;;;;;;21.45;45.89;102103.47;5054505;28;20358;-61
2021/06/23 11:47:06;;;;;;;5.15;1.55;;;;;;;21.44;45.94;102103.59;5053326;28;20116;-60
2021/06/23 11:49:33;;;;;;;4.90;1.60;;;;;;;21.43;45.76;102096.59;5053381;28;20032;-60